createdAt,value
2018-12-25T00:01:09.264Z,1.45
2018-12-25T00:03:35.093Z,1.47
2018-12-25T00:06:03.972Z,1.45
2018-12-25T00:08:29.817Z,1.50
2018-12-25T00:10:58.460Z,1.55
2018-12-25T00:13:24.290Z,1.54
2018-12-25T00:15:53.022Z,1.60
2018-12-25T00:18:18.880Z,1.56
2018-12-25T00:20:47.610Z,1.64
2018-12-25T00:23:13.466Z,1.68
2018-12-25T00:25:42.311Z,1.68
2018-12-25T00:28:08.408Z,1.69
2018-12-25T00:30:34.240Z,1.62
2018-12-25T00:33:00.069Z,1.65
2018-12-25T00:35:26.176Z,1.59
2018-12-25T00:37:52.062Z,1.58
2018-12-25T00:40:18.054Z,1.54
2018-12-25T00:42:47.158Z,1.49
2018-12-25T00:45:13.026Z,1.37
2018-12-25T00:47:42.025Z,1.38
2018-12-25T00:50:07.849Z,1.43
2018-12-25T00:52:36.768Z,1.44
2018-12-25T00:55:03.123Z,1.45
2018-12-25T00:57:32.735Z,1.50
2018-12-25T00:59:58.862Z,1.44
2018-12-25T01:02:27.865Z,1.43
2018-12-25T01:04:53.962Z,1.43
2018-12-25T01:07:19.824Z,1.41
2018-12-25T01:09:45.630Z,1.35
2018-12-25T01:12:11.482Z,1.32
2018-12-25T01:14:37.649Z,1.29
2018-12-25T01:17:03.542Z,1.32
2018-12-25T01:19:34.224Z,1.21
2018-12-25T01:22:00.376Z,1.30
2018-12-25T01:24:29.254Z,1.21
2018-12-25T01:26:55.237Z,1.12
2018-12-25T01:29:24.139Z,0.99
2018-12-25T01:31:50.106Z,1.05
2018-12-25T01:34:16.278Z,0.97
2018-12-25T01:36:42.103Z,0.88
2018-12-25T01:39:12.917Z,0.85
2018-12-25T01:41:38.870Z,0.92
2018-12-25T01:44:05.069Z,0.96
2018-12-25T01:46:30.894Z,1.01
2018-12-25T01:48:56.737Z,0.95
2018-12-25T01:51:22.873Z,0.92
2018-12-25T01:53:49.067Z,0.79
2018-12-25T01:56:17.771Z,0.77
2018-12-25T01:58:43.607Z,0.81
2018-12-25T02:01:14.228Z,0.76
2018-12-25T02:03:40.083Z,0.72
2018-12-25T02:06:08.962Z,0.60
2018-12-25T02:08:34.809Z,0.57
2018-12-25T02:11:03.463Z,0.65
2018-12-25T02:13:29.328Z,0.68
2018-12-25T02:15:57.900Z,0.54
2018-12-25T02:18:23.777Z,0.41
2018-12-25T02:20:49.864Z,0.56
2018-12-25T02:23:15.725Z,0.69
2018-12-25T02:25:41.549Z,0.73
2018-12-25T02:28:10.601Z,0.67
2018-12-25T02:30:36.468Z,0.59
2018-12-25T02:33:05.495Z,0.53
2018-12-25T02:35:31.381Z,0.34
2018-12-25T02:37:57.349Z,0.30
2018-12-25T02:40:23.498Z,0.27
2018-12-25T02:42:52.422Z,0.36
2018-12-25T02:45:18.231Z,0.39
2018-12-25T02:47:48.597Z,0.43
2018-12-25T02:50:14.415Z,0.51
2018-12-25T02:52:43.344Z,0.52
2018-12-25T02:55:09.507Z,0.41
2018-12-25T02:57:35.363Z,0.36
2018-12-25T03:00:01.563Z,0.27
2018-12-25T03:02:27.466Z,0.28
2018-12-25T03:04:53.629Z,0.32
2018-12-25T03:07:19.450Z,0.25
2018-12-25T03:09:49.469Z,0.29
2018-12-25T03:12:15.299Z,0.31
2018-12-25T03:14:44.663Z,0.28
2018-12-25T03:17:10.543Z,0.29
2018-12-25T03:19:37.658Z,0.16
2018-12-25T03:22:03.808Z,0.24
2018-12-25T03:24:33.142Z,0.29
2018-12-25T03:26:59.026Z,0.23
2018-12-25T03:29:27.637Z,0.21
2018-12-25T03:31:53.454Z,0.16
2018-12-25T03:34:19.301Z,0.12
2018-12-25T03:36:45.436Z,0.19
2018-12-25T03:39:11.269Z,0.09
2018-12-25T03:41:40.220Z,0.12
2018-12-25T03:44:06.078Z,0.17
2018-12-25T03:46:34.724Z,0.17
2018-12-25T03:49:00.614Z,0.16
2018-12-25T03:51:29.337Z,0.21
2018-12-25T03:53:55.435Z,0.19
2018-12-25T03:56:24.434Z,0.14
2018-12-25T03:58:50.289Z,0.00
2018-12-25T04:01:19.163Z,-0.06
2018-12-25T04:03:45.024Z,-0.09
2018-12-25T04:06:13.853Z,-0.12
2018-12-25T04:08:39.658Z,-0.21
2018-12-25T04:11:05.504Z,-0.23
2018-12-25T04:13:31.377Z,-0.22
2018-12-25T04:15:57.511Z,-0.19
2018-12-25T04:18:26.181Z,-0.15
2018-12-25T04:20:52.021Z,-0.20
2018-12-25T04:23:18.877Z,-0.21
2018-12-25T04:25:44.699Z,-0.21
2018-12-25T04:28:14.976Z,-0.21
2018-12-25T04:30:40.829Z,-0.18
2018-12-25T04:33:09.559Z,-0.15
2018-12-25T04:35:35.723Z,-0.12
2018-12-25T04:38:02.819Z,-0.15
2018-12-25T04:40:28.640Z,-0.14
2018-12-25T04:42:57.659Z,-0.14
2018-12-25T04:45:23.806Z,-0.15
2018-12-25T04:47:49.890Z,-0.24
2018-12-25T04:50:15.774Z,-0.32
2018-12-25T04:52:41.890Z,-0.32
2018-12-25T04:55:10.541Z,-0.37
2018-12-25T04:57:36.353Z,-0.94
2018-12-25T05:00:05.455Z,-0.29
2018-12-25T05:02:31.631Z,-0.38
2018-12-25T05:05:00.240Z,-0.39
2018-12-25T05:07:25.983Z,-0.28
2018-12-25T05:09:54.565Z,-0.26
2018-12-25T05:12:20.404Z,-0.39
2018-12-25T05:14:49.863Z,-0.38
2018-12-25T05:17:15.665Z,-0.37
2018-12-25T05:19:42.874Z,-0.33
2018-12-25T05:22:09.019Z,-0.33
2018-12-25T05:24:34.854Z,-0.37
2018-12-25T05:27:00.669Z,-0.38
2018-12-25T05:29:26.524Z,-0.39
2018-12-25T05:31:57.255Z,-0.45
2018-12-25T05:34:23.084Z,-0.62
2018-12-25T05:37:02.013Z,-0.70
2018-12-25T05:39:23.736Z,-0.75
2018-12-25T05:41:49.544Z,-0.76
2018-12-25T05:44:15.712Z,-0.66
2018-12-25T05:46:41.798Z,-0.62
2018-12-25T05:49:07.663Z,-0.76
2018-12-25T05:51:33.476Z,-0.74
2018-12-25T05:53:59.304Z,-0.72
2018-12-25T05:56:28.511Z,-0.75
2018-12-25T05:58:54.672Z,-0.82
2018-12-25T06:01:20.456Z,-0.96
2018-12-25T06:03:46.285Z,-0.94
2018-12-25T06:06:12.146Z,-0.85
2018-12-25T06:08:42.710Z,-0.77
2018-12-25T06:11:08.720Z,-0.83
2018-12-25T06:13:37.318Z,-0.76
2018-12-25T06:16:03.160Z,-0.78
2018-12-25T06:18:31.763Z,-0.91
2018-12-25T06:20:57.653Z,-0.93
2018-12-25T06:23:26.205Z,-0.86
2018-12-25T06:25:52.042Z,-0.86
2018-12-25T06:28:20.671Z,-0.82
2018-12-25T06:30:46.699Z,-1.07
2018-12-25T06:33:15.963Z,-0.92
2018-12-25T06:35:42.084Z,-1.01
2018-12-25T06:38:07.911Z,-1.07
2018-12-25T06:40:34.034Z,-1.03
2018-12-25T06:43:00.131Z,-0.98
2018-12-25T06:45:25.978Z,-1.02
2018-12-25T06:47:51.792Z,-1.02
2018-12-25T06:50:20.586Z,-1.06
2018-12-25T06:52:46.711Z,-1.23
2018-12-25T06:55:14.688Z,-1.27
2018-12-25T06:57:40.800Z,-1.30
2018-12-25T07:00:11.554Z,-1.35
2018-12-25T07:02:37.468Z,-1.31
2018-12-25T07:05:06.358Z,-1.27
2018-12-25T07:07:32.478Z,-1.26
2018-12-25T07:10:01.468Z,-1.27
2018-12-25T07:12:27.304Z,-1.30
2018-12-25T07:14:53.141Z,-1.40
2018-12-25T07:17:19.233Z,-1.41
2018-12-25T07:19:45.324Z,-1.42
2018-12-25T07:22:16.720Z,-1.52
2018-12-25T07:24:42.791Z,-1.54
2018-12-25T07:27:08.605Z,-1.49
2018-12-25T07:29:34.434Z,-1.40
2018-12-25T07:32:00.250Z,-1.27
2018-12-25T07:34:26.102Z,-1.24
2018-12-25T07:36:54.953Z,-1.22
2018-12-25T07:39:20.806Z,-1.09
2018-12-25T07:41:51.160Z,-1.02
2018-12-25T07:44:17.020Z,-0.94
2018-12-25T07:46:43.898Z,-0.88
2018-12-25T07:49:09.827Z,-0.85
2018-12-25T07:51:35.944Z,-0.88
2018-12-25T07:54:01.812Z,-0.70
2018-12-25T07:56:27.933Z,-0.79
2018-12-25T07:58:56.054Z,-0.71
2018-12-25T08:01:21.901Z,-0.20
2018-12-25T08:03:52.851Z,-0.20
2018-12-25T08:06:18.696Z,0.19
2018-12-25T08:08:45.481Z,0.64
2018-12-25T08:11:11.347Z,1.11
2018-12-25T08:13:41.592Z,1.48
2018-12-25T08:16:07.699Z,1.80
2018-12-25T08:18:35.085Z,2.29
2018-12-25T08:21:00.919Z,2.79
2018-12-25T08:23:29.619Z,2.85
2018-12-25T08:25:55.471Z,3.45
2018-12-25T08:28:21.295Z,3.58
2018-12-25T08:30:47.230Z,3.84
2018-12-25T08:33:13.068Z,4.65
2018-12-25T08:35:41.342Z,5.70
2018-12-25T08:38:07.435Z,6.89
2018-12-25T08:40:36.309Z,8.05
2018-12-25T08:43:02.184Z,8.76
2018-12-25T08:45:31.167Z,8.74
2018-12-25T08:47:57.008Z,9.32
2018-12-25T08:50:26.229Z,10.11
2018-12-25T08:52:52.078Z,10.11
2018-12-25T08:55:21.026Z,10.12
2018-12-25T08:57:46.878Z,10.28
2018-12-25T09:00:15.496Z,8.88
2018-12-25T09:02:41.342Z,7.82
2018-12-25T09:05:07.154Z,7.43
2018-12-25T09:07:33.233Z,7.13
2018-12-25T09:09:59.341Z,7.21
2018-12-25T09:12:28.221Z,7.27
2018-12-25T09:14:54.052Z,6.84
2018-12-25T09:17:22.919Z,6.78
2018-12-25T09:19:48.822Z,7.24
2018-12-25T09:22:16.001Z,7.80
2018-12-25T09:24:41.869Z,7.82
2018-12-25T09:27:11.026Z,7.78
2018-12-25T09:29:36.886Z,8.53
2018-12-25T09:32:07.323Z,8.82
2018-12-25T09:34:33.492Z,8.67
2018-12-25T09:37:02.459Z,7.83
2018-12-25T09:39:28.331Z,7.64
2018-12-25T09:41:54.240Z,7.79
2018-12-25T09:44:20.137Z,7.87
2018-12-25T09:46:46.007Z,7.83
2018-12-25T09:49:11.823Z,7.47
2018-12-25T09:51:37.782Z,6.33
2018-12-25T09:54:06.598Z,6.17
2018-12-25T09:56:32.755Z,5.45
2018-12-25T09:59:01.593Z,5.09
2018-12-25T10:01:27.434Z,5.43
2018-12-25T10:03:58.051Z,6.21
2018-12-25T10:06:23.953Z,6.62
2018-12-25T10:08:52.572Z,6.26
2018-12-25T10:11:18.700Z,7.02
2018-12-25T10:13:47.557Z,7.33
2018-12-25T10:16:13.721Z,7.96
2018-12-25T10:18:39.871Z,8.46
2018-12-25T10:21:05.708Z,8.80
2018-12-25T10:23:31.553Z,9.14
2018-12-25T10:25:57.693Z,9.44
2018-12-25T10:28:23.501Z,9.56
2018-12-25T10:30:52.644Z,9.60
2018-12-25T10:33:18.460Z,10.66
2018-12-25T10:35:47.053Z,10.71
2018-12-25T10:38:12.875Z,11.20
2018-12-25T10:40:43.410Z,10.35
2018-12-25T10:43:09.247Z,9.73
2018-12-25T10:45:38.165Z,9.75
2018-12-25T10:48:04.004Z,10.14
2018-12-25T10:50:32.833Z,9.99
2018-12-25T10:52:58.698Z,9.62
2018-12-25T10:55:26.296Z,9.12
2018-12-25T10:57:52.265Z,7.68
2018-12-25T11:00:18.418Z,6.72
2018-12-25T11:02:44.563Z,6.66
2018-12-25T11:05:10.371Z,7.12
2018-12-25T11:07:39.439Z,7.22
2018-12-25T11:10:07.255Z,6.79
2018-12-25T11:12:33.065Z,6.19
2018-12-25T11:14:58.905Z,6.13
2018-12-25T11:17:28.519Z,6.24
2018-12-25T11:19:55.706Z,6.34
2018-12-25T11:22:23.563Z,6.41
2018-12-25T11:24:49.648Z,5.86
2018-12-25T11:27:18.832Z,5.63
2018-12-25T11:29:44.634Z,4.86
2018-12-25T11:32:10.486Z,4.30
2018-12-25T11:34:36.328Z,4.24
2018-12-25T11:37:02.226Z,4.38
2018-12-25T11:39:28.023Z,4.43
2018-12-25T11:41:54.132Z,4.51
2018-12-25T11:44:23.500Z,4.38
2018-12-25T11:46:49.637Z,4.50
2018-12-25T11:49:18.394Z,4.32
2018-12-25T11:51:44.280Z,4.43
2018-12-25T11:54:12.853Z,4.20
2018-12-25T11:56:38.693Z,3.89
2018-12-25T11:59:07.286Z,3.52
2018-12-25T12:01:33.132Z,3.49
2018-12-25T12:04:01.553Z,3.67
2018-12-25T12:06:28.639Z,3.84
2018-12-25T12:08:54.506Z,3.79
2018-12-25T12:11:20.350Z,3.85
2018-12-25T12:13:46.421Z,3.93
2018-12-25T12:16:13.424Z,3.65
2018-12-25T12:18:39.295Z,3.42
2018-12-25T12:21:09.903Z,3.61
2018-12-25T12:23:35.760Z,3.78
2018-12-25T12:26:04.727Z,4.34
2018-12-25T12:28:30.569Z,4.56
2018-12-25T12:30:58.111Z,4.36
2018-12-25T12:33:24.167Z,4.75
2018-12-25T12:35:52.799Z,4.61
2018-12-25T12:38:18.616Z,4.30
2018-12-25T12:40:47.447Z,4.51
2018-12-25T12:43:13.376Z,4.69
2018-12-25T12:45:39.213Z,4.98
2018-12-25T12:48:05.374Z,5.12
2018-12-25T12:50:31.212Z,4.57
2018-12-25T12:53:00.084Z,4.52
2018-12-25T12:55:25.912Z,4.42
2018-12-25T12:57:54.541Z,4.61
2018-12-25T13:00:20.408Z,4.18
2018-12-25T13:02:49.285Z,4.17
2018-12-25T13:05:15.144Z,4.28
2018-12-25T13:07:44.107Z,4.71
2018-12-25T13:10:10.231Z,4.87
2018-12-25T13:12:37.242Z,4.71
2018-12-25T13:15:04.835Z,4.26
2018-12-25T13:17:32.244Z,4.17
2018-12-25T13:19:58.097Z,4.08
2018-12-25T13:22:23.918Z,3.57
2018-12-25T13:24:49.967Z,3.39
2018-12-25T13:27:16.076Z,3.43
2018-12-25T13:29:45.234Z,3.23
2018-12-25T13:32:11.060Z,2.98
2018-12-25T13:34:39.655Z,2.34
2018-12-25T13:37:05.800Z,1.84
2018-12-25T13:39:34.671Z,1.65
2018-12-25T13:42:00.489Z,1.60
2018-12-25T13:44:29.427Z,1.60
2018-12-25T13:46:55.393Z,1.84
2018-12-25T13:49:22.433Z,2.23
2018-12-25T13:51:48.312Z,1.98
2018-12-25T13:54:17.879Z,2.14
2018-12-25T13:56:43.736Z,2.30
2018-12-25T13:59:09.543Z,2.71
2018-12-25T14:01:35.350Z,2.59
2018-12-25T14:04:01.606Z,2.44
2018-12-25T14:06:30.472Z,2.45
2018-12-25T14:08:56.628Z,2.48
2018-12-25T14:11:24.151Z,2.27
2018-12-25T14:13:49.999Z,2.15
2018-12-25T14:16:20.712Z,2.06
2018-12-25T14:18:46.570Z,2.20
2018-12-25T14:21:15.781Z,2.47
2018-12-25T14:23:41.882Z,2.58
2018-12-25T14:26:07.720Z,2.62
2018-12-25T14:28:33.854Z,2.82
2018-12-25T14:31:04.907Z,2.83
2018-12-25T14:33:30.995Z,2.43
2018-12-25T14:35:56.837Z,1.72
2018-12-25T14:38:22.665Z,1.50
2018-12-25T14:40:48.545Z,1.38
2018-12-25T14:43:14.362Z,1.42
2018-12-25T14:45:40.211Z,1.42
2018-12-25T14:48:09.055Z,1.65
2018-12-25T14:50:35.180Z,1.86
2018-12-25T14:53:03.974Z,1.86
2018-12-25T14:55:29.822Z,1.80
2018-12-25T14:57:59.200Z,1.93
2018-12-25T15:00:25.084Z,1.96
2018-12-25T15:02:54.622Z,1.95
2018-12-25T15:05:20.481Z,1.89
2018-12-25T15:07:49.063Z,2.07
2018-12-25T15:10:14.941Z,1.87
2018-12-25T15:12:40.744Z,1.72
2018-12-25T15:15:06.743Z,1.66
2018-12-25T15:17:32.601Z,1.71
2018-12-25T15:19:59.597Z,1.51
2018-12-25T15:22:25.769Z,0.26
2018-12-25T15:24:55.053Z,1.31
2018-12-25T15:27:21.229Z,1.18
2018-12-25T15:29:49.841Z,1.21
2018-12-25T15:32:15.655Z,1.26
2018-12-25T15:34:44.886Z,1.15
2018-12-25T15:37:11.007Z,1.10
2018-12-25T15:39:39.853Z,0.95
2018-12-25T15:42:07.020Z,0.96
2018-12-25T15:44:32.882Z,1.02
2018-12-25T15:46:58.983Z,0.98
2018-12-25T15:49:25.075Z,0.82
2018-12-25T15:51:51.173Z,0.72
2018-12-25T15:54:16.999Z,0.45
2018-12-25T15:56:45.843Z,0.45
2018-12-25T15:59:11.979Z,0.48
2018-12-25T16:01:41.222Z,0.21
2018-12-25T16:04:07.327Z,0.54
2018-12-25T16:06:34.929Z,0.51
2018-12-25T16:09:00.758Z,0.59
2018-12-25T16:11:29.605Z,0.78
2018-12-25T16:13:55.470Z,0.52
2018-12-25T16:16:24.150Z,0.38
2018-12-25T16:18:49.976Z,0.44
2018-12-25T16:21:20.792Z,0.48
2018-12-25T16:23:46.642Z,0.51
2018-12-25T16:26:12.471Z,0.46
2018-12-25T16:28:38.305Z,0.45
2018-12-25T16:31:04.150Z,0.33
2018-12-25T16:33:33.023Z,0.43
2018-12-25T16:35:59.072Z,0.34
2018-12-25T16:38:24.938Z,0.39
2018-12-25T16:40:50.801Z,0.43
2018-12-25T16:43:20.062Z,0.41
2018-12-25T16:45:45.895Z,0.30
2018-12-25T16:48:14.756Z,0.30
2018-12-25T16:50:40.583Z,0.33
2018-12-25T16:53:11.203Z,0.42
2018-12-25T16:55:37.026Z,0.46
2018-12-25T16:58:05.643Z,0.46
2018-12-25T17:00:32.242Z,0.31
2018-12-25T17:02:58.425Z,0.31
2018-12-25T17:05:24.519Z,0.15
2018-12-25T17:07:50.609Z,0.16
2018-12-25T17:10:36.606Z,0.42
2018-12-25T17:13:02.413Z,0.42
2018-12-25T17:15:28.256Z,0.56
2018-12-25T17:17:54.360Z,0.51
2018-12-25T17:20:20.217Z,0.17
2018-12-25T17:22:46.349Z,0.17
2018-12-25T17:25:12.248Z,0.02
2018-12-25T17:27:38.385Z,-0.05
2018-12-25T17:30:06.755Z,0.14
2018-12-25T17:32:34.163Z,0.10
2018-12-25T17:34:59.999Z,0.10
2018-12-25T17:37:25.856Z,0.18
2018-12-25T17:39:51.694Z,0.13
2018-12-25T17:42:17.806Z,0.25
2018-12-25T17:44:43.641Z,0.21
2018-12-25T17:47:09.484Z,0.06
2018-12-25T17:49:35.610Z,0.05
2018-12-25T17:52:08.701Z,0.14
2018-12-25T17:54:34.923Z,0.12
2018-12-25T17:57:00.744Z,0.08
2018-12-25T17:59:26.615Z,0.04
2018-12-25T18:01:52.642Z,-0.07
2018-12-25T18:04:18.807Z,0.00
2018-12-25T18:06:44.954Z,-0.10
2018-12-25T18:09:10.871Z,-0.10
2018-12-25T18:11:36.686Z,-0.15
2018-12-25T18:14:02.695Z,-0.35
2018-12-25T18:16:30.081Z,-0.34
2018-12-25T18:18:56.084Z,-0.34
2018-12-25T18:21:22.054Z,-0.31
2018-12-25T18:23:48.110Z,-0.34
2018-12-25T18:26:14.286Z,-0.31
2018-12-25T18:28:43.278Z,-0.28
2018-12-25T18:31:09.116Z,-0.44
2018-12-25T18:33:37.722Z,-0.41
2018-12-25T18:36:03.566Z,-0.46
2018-12-25T18:38:32.418Z,-0.50
2018-12-25T18:40:58.687Z,-0.39
2018-12-25T18:43:27.565Z,-0.44
2018-12-25T18:45:56.277Z,-0.51
2018-12-25T18:48:22.219Z,-0.72
2018-12-25T18:50:48.109Z,-0.81
2018-12-25T18:53:13.981Z,-0.71
2018-12-25T18:55:40.349Z,-0.61
2018-12-25T18:58:06.541Z,-0.61
2018-12-25T19:00:32.341Z,-0.56
2018-12-25T19:02:58.481Z,-0.57
2018-12-25T19:05:27.516Z,-0.57
2018-12-25T19:07:53.337Z,-0.62
2018-12-25T19:10:22.120Z,-0.62
2018-12-25T19:12:47.943Z,-0.58
2018-12-25T19:15:21.130Z,-0.64
2018-12-25T19:17:47.545Z,-0.70
2018-12-25T19:20:13.396Z,-0.77
2018-12-25T19:22:39.535Z,-0.67
2018-12-25T19:25:05.665Z,-0.60
2018-12-25T19:27:31.507Z,-0.66
2018-12-25T19:29:57.310Z,-0.74
2018-12-25T19:32:23.206Z,-0.84
2018-12-25T19:34:49.307Z,-0.84
2018-12-25T19:37:18.189Z,-0.70
2018-12-25T19:39:44.286Z,-0.79
2018-12-25T19:42:13.180Z,-0.94
2018-12-25T19:44:39.270Z,-0.80
2018-12-25T19:47:06.518Z,-1.26
2018-12-25T19:49:32.343Z,-0.74
2018-12-25T19:52:02.846Z,-0.81
2018-12-25T19:54:28.729Z,-0.82
2018-12-25T19:56:58.209Z,-0.78
2018-12-25T19:59:24.025Z,-0.72
2018-12-25T20:01:52.699Z,-0.73
2018-12-25T20:04:22.637Z,-0.69
2018-12-25T20:07:12.003Z,-0.63
2018-12-25T20:09:45.016Z,-0.64
2018-12-25T20:12:32.293Z,-0.58
2018-12-25T20:15:18.466Z,-0.49
2018-12-25T20:18:20.510Z,-0.40
2018-12-25T20:21:05.531Z,-0.40
2018-12-25T20:23:55.112Z,-0.40
2018-12-25T20:26:53.709Z,-0.38
2018-12-25T20:29:52.914Z,-0.41
2018-12-25T20:32:25.352Z,-0.38
2018-12-25T20:35:00.965Z,-0.28
2018-12-25T20:37:47.658Z,-0.32
2018-12-25T20:40:26.215Z,-0.23
2018-12-25T20:43:01.688Z,-0.12
2018-12-25T20:45:34.374Z,-0.02
2018-12-25T20:48:09.848Z,-0.07
2018-12-25T20:51:02.560Z,-0.05
2018-12-25T20:53:47.813Z,0.03
2018-12-25T20:56:32.861Z,-0.08
2018-12-25T20:59:26.298Z,-0.04
2018-12-25T21:02:04.286Z,-0.10
2018-12-25T21:04:51.684Z,-0.41
2018-12-25T21:07:34.549Z,-0.12
2018-12-25T21:10:27.554Z,-0.16
2018-12-25T21:13:03.263Z,-0.17
2018-12-25T21:15:35.957Z,-0.16
2018-12-25T21:18:22.057Z,-0.15
2018-12-25T21:20:57.831Z,-0.17
2018-12-25T21:24:01.528Z,-0.17
2018-12-25T21:27:04.998Z,-0.24
2018-12-25T21:29:31.253Z,-0.22
2018-12-25T21:31:57.060Z,-0.27
2018-12-25T21:34:23.326Z,-0.25
2018-12-25T21:36:49.666Z,-0.27
2018-12-25T21:39:15.848Z,-0.26
2018-12-25T21:41:41.976Z,-0.33
2018-12-25T21:44:08.000Z,-0.42
2018-12-25T21:46:34.342Z,-0.29
2018-12-25T21:49:00.229Z,-0.29
2018-12-25T21:51:26.253Z,-0.23
2018-12-25T21:53:52.301Z,-0.29
2018-12-25T21:56:25.459Z,-0.33
2018-12-25T21:58:52.322Z,-0.30
2018-12-25T22:01:18.404Z,-0.26
2018-12-25T22:03:44.663Z,-0.26
2018-12-25T22:06:10.800Z,-0.24
2018-12-25T22:08:36.629Z,-0.38
2018-12-25T22:11:02.749Z,-0.43
2018-12-25T22:13:28.602Z,-0.42
2018-12-25T22:15:54.459Z,-0.41
2018-12-25T22:18:20.314Z,-0.70
2018-12-25T22:20:46.146Z,-0.39
2018-12-25T22:23:11.980Z,-0.29
2018-12-25T22:25:42.433Z,-0.12
2018-12-25T22:28:08.329Z,-0.05
2018-12-25T22:30:34.166Z,-0.02
2018-12-25T22:33:00.343Z,0.09
2018-12-25T22:35:26.401Z,-0.02
2018-12-25T22:37:52.517Z,-0.05
2018-12-25T22:40:18.339Z,-0.05
2018-12-25T22:42:44.177Z,-0.11
2018-12-25T22:45:10.296Z,-0.10
2018-12-25T22:47:38.166Z,-0.13
2018-12-25T22:50:04.736Z,-0.16
2018-12-25T22:52:30.571Z,-0.15
2018-12-25T22:54:56.403Z,-0.15
2018-12-25T22:57:22.325Z,-0.17
2018-12-25T22:59:48.547Z,-0.18
2018-12-25T23:02:15.937Z,-0.19
2018-12-25T23:04:41.786Z,-0.17
2018-12-25T23:07:07.607Z,-0.15
2018-12-25T23:09:33.444Z,-0.16
2018-12-25T23:11:59.552Z,-0.21
2018-12-25T23:14:25.409Z,-0.28
2018-12-25T23:16:51.250Z,-0.27
2018-12-25T23:19:17.088Z,-0.38
2018-12-25T23:21:42.883Z,-0.41
2018-12-25T23:24:08.758Z,-0.39
2018-12-25T23:26:34.891Z,-0.42
2018-12-25T23:29:00.837Z,-0.40
2018-12-25T23:31:26.740Z,-0.36
2018-12-25T23:33:52.585Z,-0.33
2018-12-25T23:36:18.668Z,-0.32
2018-12-25T23:38:44.760Z,-0.37
2018-12-25T23:41:10.580Z,-0.33
2018-12-25T23:43:36.703Z,-0.38
2018-12-25T23:46:02.591Z,-0.47
2018-12-25T23:48:28.413Z,-0.41
2018-12-25T23:50:54.550Z,-0.44
2018-12-25T23:53:23.153Z,-0.48
2018-12-25T23:55:52.949Z,-0.51
2018-12-25T23:58:18.041Z,-0.45
